ETHA

Altenstadt Army Airfield Airport

Altenstadt, Germany
METAR ETHA 212220Z AUTO 25003KT //// // ////// 12/07 Q1019 ///
Observed Flight Rules
Apr-21 @ 22:20 UTC (43 minutes ago)
Wind
250° at 3 knots
Temperatures Readings
Current 12°C / 54°F
Dewpoint 7°C / 45°F
Humidity 72%
Altimeter 30.09" Hg
Pressure 1019 hPa
Elevation 760
METAR ETHA 212220Z AUTO 25003KT //// // ////// 12/07 Q1019 ///
Observed Flight Rules
Apr-21 @ 22:20 UTC
(43 minutes ago)
Wind
250° at 3 knots
Temperature Dewpoint
12°C / 54°F 7°C / 45°F
Humidity Altimeter Pressure
72% 30.09" Hg 1019 hPa